This is the latest recevied weather packets stored in our database for station/object 9W2YIE-13. If no packets are shown the sender has not sent any weather packets the latest 10 day(s).
| Time | Temp. | Humidity | Pressure | Rain* | Wind** | Luminosity | Snow |
|---|---|---|---|---|---|---|---|
| 1787586279 | 42.78° C | 34% | 1009 hPa | - | - | 0 W/m² | - |
| 1787585337 | 42.22° C | 34% | 1009 hPa | - | - | 0 W/m² | - |
| 1787584394 | 42.78° C | 33% | 1008 hPa | - | - | 0 W/m² | - |
| 1787583466 | 42.78° C | 33% | 1008 hPa | - | - | 0 W/m² | - |
| 1787582530 | 42.78° C | 33% | 1008 hPa | - | - | 0 W/m² | - |
| 1787581592 | 41.67° C | 34% | 1008 hPa | - | - | 0 W/m² | - |
| 1787580660 | 38.89° C | 38% | 1008 hPa | - | - | 0 W/m² | - |
| 1787579864 | 37.78° C | 43% | 1008 hPa | - | - | 0 W/m² | - |
| 1787578917 | 41.11° C | 41% | 1007 hPa | - | - | 0 W/m² | - |
| 1787577982 | 45° C | 34% | 1007 hPa | - | - | 0 W/m² | - |
| 1787577044 | 45° C | 34% | 1007 hPa | - | - | 0 W/m² | - |
| 1787576093 | 45° C | 33% | 1006 hPa | - | - | 0 W/m² | - |
| 1787575166 | 45.56° C | 33% | 1006 hPa | - | - | 0 W/m² | - |
| 1787574217 | 44.44° C | 34% | 1006 hPa | - | - | 0 W/m² | - |
| 1787573219 | 45° C | 34% | 1006 hPa | - | - | 0 W/m² | - |
| 1787572284 | 45° C | 33% | 1006 hPa | - | - | 0 W/m² | - |
| 1787571357 | 45° C | 34% | 1005 hPa | - | - | 0 W/m² | - |
| 1787570426 | 44.44° C | 34% | 1005 hPa | - | - | 0 W/m² | - |
| 1787569500 | 44.44° C | 35% | 1005 hPa | - | - | 0 W/m² | - |
| 1787568537 | 45.56° C | 34% | 1005 hPa | - | - | 0 W/m² | - |
| 1787567606 | 46.67° C | 30% | 1004 hPa | - | - | 0 W/m² | - |
| 1787566855 | 47.22° C | 28% | 1004 hPa | - | - | 0 W/m² | - |
| 1787565901 | 46.67° C | 29% | 1004 hPa | - | - | 0 W/m² | - |
| 1787564968 | 47.78° C | 28% | 1004 hPa | - | - | 0 W/m² | - |
| 1787564039 | 47.22° C | 28% | 1004 hPa | - | - | 0 W/m² | - |
* Rain since midnight (hover to see other rain measurements)
** Current wind speed in m/s (hover to see current wind gust speed)